Time;durP1;ratioP1;P1;durP2;ratioP2;P2;SDS_P1;SDS_P2;PMS_P1;PMS_P2;Temp;Humidity;BMP_temperature;BMP_pressure;BME280_temperature;BME280_humidity;BME280_pressure;Samples;Min_cycle;Max_cycle;Signal;HPM_P1;HPM_P2
2023/04/19 00:02:12;;;;;;;15.27;9.45;;;;;;;9.01;68.23;103186.50;7396280;19;20018;-58
2023/04/19 00:04:39;;;;;;;15.32;9.30;;;;;;;8.94;68.59;103176.16;7393400;19;20018;-59
2023/04/19 00:07:07;;;;;;;15.15;9.82;;;;;;;8.93;68.38;103180.56;7394191;19;20018;-58
2023/04/19 00:09:34;;;;;;;17.10;9.60;;;;;;;8.88;68.72;103177.16;7399259;19;20058;-58
2023/04/19 00:12:02;;;;;;;15.10;9.57;;;;;;;8.86;68.37;103176.38;7394799;19;20022;-58
2023/04/19 00:14:29;;;;;;;14.40;9.38;;;;;;;8.88;68.66;103182.47;7395262;19;20045;-59
2023/04/19 00:16:55;;;;;;;15.20;9.50;;;;;;;8.89;68.45;103173.63;7393662;19;20025;-58
2023/04/19 00:19:22;;;;;;;16.15;9.73;;;;;;;8.81;68.46;103172.09;7393908;19;20565;-57
2023/04/19 00:21:49;;;;;;;15.77;10.07;;;;;;;8.79;68.60;103174.78;7395115;19;20034;-57
2023/04/19 00:24:17;;;;;;;17.35;10.32;;;;;;;8.78;68.45;103170.44;7395585;19;20018;-57
2023/04/19 00:26:44;;;;;;;15.65;9.85;;;;;;;8.70;68.94;103169.75;7393283;19;20022;-57
2023/04/19 00:29:11;;;;;;;14.07;9.90;;;;;;;8.73;68.47;103167.03;7393648;19;20377;-58
2023/04/19 00:31:38;;;;;;;15.05;10.10;;;;;;;8.77;68.41;103168.66;7393901;19;20025;-57
2023/04/19 00:34:05;;;;;;;17.52;9.77;;;;;;;8.85;67.84;103171.09;7395387;19;20023;-57
2023/04/19 00:36:33;;;;;;;15.80;9.77;;;;;;;8.75;67.79;103168.72;7392156;19;20021;-57
2023/04/19 00:39:00;;;;;;;16.50;9.45;;;;;;;8.69;67.81;103163.59;7394815;19;20392;-58
2023/04/19 00:41:26;;;;;;;14.30;9.40;;;;;;;8.73;67.83;103167.03;7394091;19;20019;-56
2023/04/19 00:43:54;;;;;;;14.23;9.18;;;;;;;8.77;67.28;103164.25;7394766;19;20019;-57
2023/04/19 00:46:21;;;;;;;16.80;9.73;;;;;;;8.70;67.31;103169.75;7392214;19;20086;-56
2023/04/19 00:48:49;;;;;;;14.65;8.57;;;;;;;8.58;67.49;103167.44;7394445;19;20015;-57
2023/04/19 00:51:16;;;;;;;14.10;9.35;;;;;;;8.59;67.25;103169.19;7393917;19;20015;-57
2023/04/19 00:53:43;;;;;;;14.20;8.57;;;;;;;8.57;67.09;103163.94;7394558;19;20015;-56
2023/04/19 00:56:12;;;;;;;14.25;9.10;;;;;;;8.57;66.75;103161.28;7392263;19;20037;-56
2023/04/19 00:58:39;;;;;;;15.32;8.68;;;;;;;8.57;66.39;103163.06;7394178;19;20026;-57
2023/04/19 01:01:06;;;;;;;15.25;8.32;;;;;;;8.61;66.22;103162.06;7393615;19;20035;-57
2023/04/19 01:03:33;;;;;;;13.88;8.75;;;;;;;8.52;66.30;103163.19;7394130;19;20047;-56
2023/04/19 01:06:01;;;;;;;13.55;8.65;;;;;;;8.48;66.37;103161.53;7392207;19;20023;-57
2023/04/19 01:08:28;;;;;;;13.45;8.57;;;;;;;8.41;66.16;103166.09;7394309;19;20023;-57
2023/04/19 01:10:55;;;;;;;14.40;8.25;;;;;;;8.38;65.89;103158.25;7393492;19;20014;-56
2023/04/19 01:13:22;;;;;;;12.63;8.40;;;;;;;8.34;66.04;103161.00;7391739;19;20018;-58
2023/04/19 01:15:50;;;;;;;14.55;8.77;;;;;;;8.40;65.74;103158.25;7392285;19;20022;-58
2023/04/19 01:18:18;;;;;;;14.00;8.50;;;;;;;8.27;66.03;103168.19;7390680;19;20023;-57
2023/04/19 01:20:45;;;;;;;14.63;9.10;;;;;;;8.31;65.93;103151.38;7393831;19;20335;-57
2023/04/19 01:23:12;;;;;;;16.67;9.43;;;;;;;8.36;65.68;103152.13;7390234;19;20018;-58
2023/04/19 01:25:39;;;;;;;14.38;8.55;;;;;;;8.30;65.58;103162.84;7392676;19;20022;-58
2023/04/19 01:28:06;;;;;;;13.35;8.35;;;;;;;8.19;65.87;103157.81;7393671;19;20145;-57
2023/04/19 01:30:34;;;;;;;14.30;8.77;;;;;;;8.28;65.52;103159.38;7391477;19;20495;-58
2023/04/19 01:33:01;;;;;;;15.05;8.93;;;;;;;8.22;65.49;103159.53;7391080;19;20413;-57
2023/04/19 01:35:28;;;;;;;14.57;8.93;;;;;;;8.27;65.27;103158.50;7392273;19;20443;-57
2023/04/19 01:37:55;;;;;;;15.65;9.32;;;;;;;8.27;65.02;103160.28;7391672;19;20035;-58
2023/04/19 01:40:25;;;;;;;14.18;8.98;;;;;;;8.14;65.35;103161.50;7392510;19;20602;-58
2023/04/19 01:42:52;;;;;;;14.30;8.88;;;;;;;8.09;65.29;103161.63;7391241;19;20558;-58
2023/04/19 01:45:19;;;;;;;14.85;9.15;;;;;;;8.09;65.21;103161.63;7391843;19;20010;-57
2023/04/19 01:47:46;;;;;;;16.38;9.60;;;;;;;8.06;65.32;103159.91;7393022;19;20192;-56
2023/04/19 01:50:13;;;;;;;15.68;9.00;;;;;;;7.95;65.57;103163.72;7392605;19;20105;-58
2023/04/19 01:52:40;;;;;;;13.60;8.90;;;;;;;8.01;65.53;103153.88;7391109;19;20015;-58
2023/04/19 01:55:07;;;;;;;15.48;9.15;;;;;;;7.94;65.21;103152.28;7391640;19;20047;-59
2023/04/19 01:57:35;;;;;;;15.73;9.23;;;;;;;7.90;64.86;103155.91;7390998;19;20032;-59
2023/04/19 02:00:02;;;;;;;16.90;9.07;;;;;;;7.85;65.12;103152.50;7392054;19;20021;-58
2023/04/19 02:02:29;;;;;;;14.60;8.65;;;;;;;7.88;64.77;103148.94;7391881;19;20018;-57
2023/04/19 02:04:56;;;;;;;14.57;8.48;;;;;;;7.78;64.69;103153.53;7392136;19;20027;-57
2023/04/19 02:07:23;;;;;;;12.75;8.02;;;;;;;7.80;64.77;103154.38;7392257;19;20023;-57
2023/04/19 02:09:50;;;;;;;14.07;8.15;;;;;;;7.78;64.65;103162.34;7392382;19;20011;-58
2023/04/19 02:12:17;;;;;;;12.82;8.43;;;;;;;7.82;64.46;103161.38;7389831;19;20221;-58
2023/04/19 02:14:44;;;;;;;14.57;8.40;;;;;;;7.80;64.72;103162.28;7389532;19;20051;-58
2023/04/19 02:17:11;;;;;;;12.75;7.95;;;;;;;7.79;64.55;103156.16;7391853;19;20014;-58
2023/04/19 02:19:38;;;;;;;13.07;7.72;;;;;;;7.78;64.28;103154.44;7391315;19;20018;-58
2023/04/19 02:22:05;;;;;;;13.85;7.93;;;;;;;7.74;64.69;103157.16;7391396;19;20018;-58
2023/04/19 02:24:31;;;;;;;14.98;8.10;;;;;;;7.69;64.75;103170.44;7391280;19;20027;-58
2023/04/19 02:26:58;;;;;;;12.40;7.95;;;;;;;7.67;64.62;103155.56;7389580;19;20022;-58
2023/04/19 02:29:25;;;;;;;15.30;8.00;;;;;;;7.57;64.96;103157.53;7390923;19;20330;-58
2023/04/19 02:31:52;;;;;;;11.80;7.70;;;;;;;7.58;64.71;103157.50;7390888;19;20025;-58
2023/04/19 02:34:19;;;;;;;14.70;8.05;;;;;;;7.57;64.29;103158.41;7391388;19;20016;-58
2023/04/19 02:36:47;;;;;;;12.52;7.80;;;;;;;7.62;64.45;103154.81;7388421;19;20030;-58
2023/04/19 02:39:16;;;;;;;14.43;7.95;;;;;;;7.52;64.52;103156.78;7390859;19;20552;-58
2023/04/19 02:41:43;;;;;;;17.55;7.95;;;;;;;7.45;64.49;103153.41;7392386;19;20015;-58
2023/04/19 02:44:11;;;;;;;14.02;7.88;;;;;;;7.47;64.60;103162.13;7389193;19;20023;-58
2023/04/19 02:46:38;;;;;;;12.52;6.95;;;;;;;7.45;64.25;103156.06;7389620;19;20022;-58
2023/04/19 02:49:05;;;;;;;12.82;7.50;;;;;;;7.32;64.48;103158.06;7390296;19;20014;-58
2023/04/19 02:51:32;;;;;;;14.35;7.05;;;;;;;7.41;64.32;103156.16;7390870;19;20026;-58
2023/04/19 02:53:59;;;;;;;13.20;7.38;;;;;;;7.48;64.05;103155.13;7388951;19;20369;-58
2023/04/19 02:56:26;;;;;;;12.15;7.20;;;;;;;7.45;63.65;103150.78;7389670;19;20037;-58
2023/04/19 02:58:53;;;;;;;13.43;7.00;;;;;;;7.34;64.12;103152.78;7389864;19;20260;-58
2023/04/19 03:01:20;;;;;;;12.13;6.90;;;;;;;7.28;63.94;103153.75;7390658;19;20023;-57
2023/04/19 03:03:47;;;;;;;12.20;7.00;;;;;;;7.31;64.15;103147.56;7390564;19;20043;-57
2023/04/19 03:06:15;;;;;;;11.88;7.20;;;;;;;7.36;63.59;103152.72;7388918;19;20014;-57
2023/04/19 03:08:42;;;;;;;14.15;7.28;;;;;;;7.26;63.76;103154.72;7389578;19;20018;-58
2023/04/19 03:11:15;;;;;;;12.45;6.97;;;;;;;7.31;63.63;103155.47;7390667;19;20029;-57
2023/04/19 03:13:42;;;;;;;12.65;7.18;;;;;;;7.27;63.85;103153.81;7388252;19;20105;-57
2023/04/19 03:16:09;;;;;;;11.18;6.88;;;;;;;7.28;63.55;103145.84;7389149;19;20230;-57
2023/04/19 03:18:36;;;;;;;11.95;7.32;;;;;;;7.27;63.33;103144.13;7389703;19;20017;-57
2023/04/19 03:21:03;;;;;;;12.98;7.00;;;;;;;7.36;62.84;103145.69;7390301;19;20036;-57
2023/04/19 03:23:30;;;;;;;13.55;7.00;;;;;;;7.17;63.40;103144.34;7389659;19;20499;-58
2023/04/19 03:25:57;;;;;;;14.20;7.03;;;;;;;7.12;63.53;103135.69;7393957;19;20098;-57
2023/04/19 03:28:24;;;;;;;11.20;6.00;;;;;;;7.13;63.18;103135.63;7396699;19;20023;-57
2023/04/19 03:30:51;;;;;;;13.65;7.03;;;;;;;7.10;63.28;103146.25;7397861;19;20040;-57
2023/04/19 03:33:18;;;;;;;10.27;6.40;;;;;;;7.08;63.08;103148.91;7395018;19;20032;-57
2023/04/19 03:35:45;;;;;;;13.30;6.93;;;;;;;7.06;63.06;103145.47;7395419;19;20397;-57
2023/04/19 03:38:12;;;;;;;12.32;6.53;;;;;;;7.05;63.20;103148.97;7395518;19;20074;-57
2023/04/19 03:40:39;;;;;;;12.63;6.38;;;;;;;7.03;62.86;103142.00;7397118;19;20015;-57
2023/04/19 03:43:06;;;;;;;13.73;5.97;;;;;;;6.97;62.91;103143.00;7397367;19;20014;-57
2023/04/19 03:45:33;;;;;;;12.45;6.38;;;;;;;6.95;62.93;103149.22;7395532;19;20047;-57
2023/04/19 03:48:00;;;;;;;12.63;6.43;;;;;;;6.80;63.34;103140.69;7396899;19;20019;-57
2023/04/19 03:50:28;;;;;;;12.85;6.28;;;;;;;6.84;63.40;103146.78;7396718;19;20044;-58
2023/04/19 03:52:55;;;;;;;12.38;6.40;;;;;;;6.87;63.21;103144.09;7395438;19;20025;-57
2023/04/19 03:55:22;;;;;;;11.48;6.38;;;;;;;6.93;63.18;103146.59;7394334;19;20077;-57
2023/04/19 03:57:49;;;;;;;11.75;6.50;;;;;;;6.96;62.78;103143.91;7397075;19;20378;-58
2023/04/19 04:00:16;;;;;;;11.95;7.07;;;;;;;6.88;62.72;103143.19;7396562;19;20018;-58
2023/04/19 04:02:43;;;;;;;11.90;6.07;;;;;;;6.87;62.95;103138.81;7396621;19;20024;-58
2023/04/19 04:05:11;;;;;;;13.68;6.63;;;;;;;6.82;63.19;103144.16;7395840;19;20134;-56
2023/04/19 04:07:38;;;;;;;11.32;6.38;;;;;;;6.77;63.01;103138.13;7396477;19;20018;-57
2023/04/19 04:10:06;;;;;;;11.43;6.43;;;;;;;6.86;63.07;103147.59;7394757;19;20017;-57
2023/04/19 04:12:32;;;;;;;10.25;5.75;;;;;;;6.90;62.78;103141.38;7395632;19;20398;-58
2023/04/19 04:14:59;;;;;;;12.07;6.07;;;;;;;6.93;62.55;103141.31;7394942;19;20499;-58
2023/04/19 04:17:26;;;;;;;11.85;6.90;;;;;;;6.89;62.63;103149.31;7395612;19;20508;-57
2023/04/19 04:19:53;;;;;;;13.13;6.75;;;;;;;6.88;62.78;103150.22;7395513;19;20023;-57
2023/04/19 04:22:20;;;;;;;11.25;6.45;;;;;;;6.80;62.89;103147.75;7396096;19;20377;-56
2023/04/19 04:24:48;;;;;;;11.95;6.53;;;;;;;6.80;62.85;103147.75;7393381;19;20007;-56
2023/04/19 04:27:19;;;;;;;14.25;6.43;;;;;;;6.79;63.07;103146.88;7395345;19;20022;-56
2023/04/19 04:29:46;;;;;;;11.45;6.63;;;;;;;6.76;63.00;103146.06;7395176;19;20372;-56
2023/04/19 04:32:13;;;;;;;11.65;6.80;;;;;;;6.79;63.21;103140.72;7395230;19;20481;-57
2023/04/19 04:34:41;;;;;;;13.65;7.32;;;;;;;6.69;63.17;103147.06;7394588;19;20015;-57
2023/04/19 04:37:09;;;;;;;12.98;6.75;;;;;;;6.68;63.39;103150.56;7393259;19;20625;-57
2023/04/19 04:39:38;;;;;;;10.43;6.38;;;;;;;6.78;62.89;103154.78;7393049;19;20014;-57
2023/04/19 04:42:07;;;;;;;12.45;6.32;;;;;;;6.65;63.30;103145.41;7393710;19;20021;-56
2023/04/19 04:44:35;;;;;;;13.50;7.00;;;;;;;6.74;63.08;103148.72;7395227;19;20019;-56
2023/04/19 04:47:02;;;;;;;11.93;6.72;;;;;;;6.75;63.01;103154.84;7393290;19;20019;-56
2023/04/19 04:49:32;;;;;;;14.45;7.03;;;;;;;6.75;62.90;103152.19;7394141;19;20086;-56
2023/04/19 04:51:59;;;;;;;12.55;6.80;;;;;;;6.75;62.74;103155.72;7394987;19;20078;-57
2023/04/19 04:54:26;;;;;;;11.13;5.88;;;;;;;6.65;63.18;103150.66;7392268;19;20094;-56
2023/04/19 04:56:53;;;;;;;10.82;6.22;;;;;;;6.61;63.36;103160.38;7392240;19;20018;-56
2023/04/19 04:59:20;;;;;;;11.77;5.93;;;;;;;6.67;63.11;103149.72;7394088;19;20023;-56
2023/04/19 05:01:46;;;;;;;11.43;6.78;;;;;;;6.56;63.25;103142.03;7394192;19;20018;-57
2023/04/19 05:04:14;;;;;;;11.15;5.90;;;;;;;6.61;63.30;103154.25;7394656;19;20014;-57
2023/04/19 05:06:43;;;;;;;11.55;6.80;;;;;;;6.57;62.98;103148.16;7392314;19;20014;-57
2023/04/19 05:09:10;;;;;;;11.25;6.45;;;;;;;6.58;63.43;103144.63;7393982;19;20067;-54
2023/04/19 05:11:37;;;;;;;12.00;5.82;;;;;;;6.58;63.02;103150.75;7393787;19;20011;-56
2023/04/19 05:14:04;;;;;;;12.55;6.03;;;;;;;6.64;62.99;103151.53;7392595;19;20015;-56
2023/04/19 05:16:32;;;;;;;13.38;6.28;;;;;;;6.64;62.84;103151.53;7391763;19;20014;-57
2023/04/19 05:18:59;;;;;;;11.77;6.20;;;;;;;6.69;62.96;103152.34;7393641;19;20026;-55
2023/04/19 05:21:26;;;;;;;10.85;5.70;;;;;;;6.69;63.03;103150.56;7393527;19;20015;-56
2023/04/19 05:23:53;;;;;;;11.35;5.97;;;;;;;6.65;62.75;103150.66;7393919;19;20051;-56
2023/04/19 05:26:20;;;;;;;11.25;5.95;;;;;;;6.62;63.29;103153.34;7391232;19;20026;-57
2023/04/19 05:28:47;;;;;;;11.98;5.78;;;;;;;6.64;63.17;103146.28;7393436;19;20022;-56
2023/04/19 05:31:14;;;;;;;10.93;5.72;;;;;;;6.63;63.24;103144.53;7393472;19;20018;-56
2023/04/19 05:33:41;;;;;;;12.38;6.10;;;;;;;6.60;63.33;103150.72;7390805;19;20389;-56
2023/04/19 05:36:08;;;;;;;11.30;5.57;;;;;;;6.63;63.39;103147.19;7391955;19;20483;-58
2023/04/19 05:38:35;;;;;;;11.27;5.55;;;;;;;6.78;63.01;103153.00;7393587;19;20099;-56
2023/04/19 05:41:03;;;;;;;11.13;5.15;;;;;;;6.73;63.05;103154.00;7391476;19;20096;-56
2023/04/19 05:43:30;;;;;;;12.63;5.32;;;;;;;6.76;62.89;103152.19;7392834;19;20516;-56
2023/04/19 05:45:57;;;;;;;10.25;5.32;;;;;;;6.83;62.42;103150.31;7391834;19;20347;-56
2023/04/19 05:48:24;;;;;;;9.82;5.60;;;;;;;6.84;62.78;103154.69;7391070;19;20017;-56
2023/04/19 05:50:53;;;;;;;11.80;5.60;;;;;;;6.74;63.05;103148.72;7392810;19;20015;-57
2023/04/19 05:53:20;;;;;;;11.10;5.53;;;;;;;6.88;62.41;103153.72;7391967;19;20029;-57
2023/04/19 05:55:49;;;;;;;9.35;5.15;;;;;;;6.82;62.87;103141.53;7391236;19;20044;-57
2023/04/19 05:58:17;;;;;;;9.48;5.07;;;;;;;6.92;62.83;103149.25;7392651;19;20089;-57
2023/04/19 06:00:44;;;;;;;10.90;5.38;;;;;;;7.01;62.25;103152.56;7392251;19;20018;-57
2023/04/19 06:03:11;;;;;;;9.32;4.82;;;;;;;7.07;62.32;103151.59;7392435;19;20061;-57
2023/04/19 06:05:39;;;;;;;9.82;4.85;;;;;;;7.07;62.26;103148.94;7390880;19;20132;-58
2023/04/19 06:08:08;;;;;;;9.70;4.80;;;;;;;7.07;62.34;103148.94;7392365;19;20026;-56
2023/04/19 06:10:36;;;;;;;10.13;4.85;;;;;;;7.12;62.20;103157.63;7391366;19;20574;-57
2023/04/19 06:13:19;;;;;;;8.90;5.43;;;;;;;7.22;62.43;103147.78;7391861;19;20014;-56
2023/04/19 06:15:47;;;;;;;8.65;4.65;;;;;;;7.28;62.17;103145.00;7390137;19;20025;-58
2023/04/19 06:18:14;;;;;;;11.55;5.35;;;;;;;7.29;62.13;103144.13;7391719;19;20010;-58
2023/04/19 06:20:46;;;;;;;9.73;4.70;;;;;;;7.38;62.20;103150.94;7391528;19;20491;-57
2023/04/19 06:23:13;;;;;;;9.55;4.80;;;;;;;7.42;62.29;103149.97;7391725;19;20011;-57
2023/04/19 06:25:40;;;;;;;9.90;4.50;;;;;;;7.44;61.98;103149.06;7390623;19;20023;-56
2023/04/19 06:28:07;;;;;;;11.10;4.63;;;;;;;7.48;62.22;103152.50;7392291;19;20021;-57
2023/04/19 06:30:35;;;;;;;12.73;4.60;;;;;;;7.54;62.20;103150.56;7391215;19;20021;-57
2023/04/19 06:33:01;;;;;;;9.15;4.28;;;;;;;7.60;62.09;103149.56;7390893;19;20495;-57
2023/04/19 06:35:31;;;;;;;9.88;4.63;;;;;;;7.62;61.99;103146.88;7390812;19;20022;-57
2023/04/19 06:37:58;;;;;;;10.23;4.38;;;;;;;7.64;61.85;103148.59;7391718;19;20118;-57
2023/04/19 06:40:27;;;;;;;8.20;4.32;;;;;;;7.77;61.63;103147.41;7389455;19;20015;-57
2023/04/19 06:42:54;;;;;;;9.93;4.45;;;;;;;7.76;61.60;103144.81;7391021;19;20077;-58
2023/04/19 06:45:22;;;;;;;9.38;3.90;;;;;;;7.81;61.73;103140.28;7390483;19;20018;-57
2023/04/19 06:47:49;;;;;;;7.85;3.88;;;;;;;7.91;61.41;103139.16;7391387;19;20043;-57
2023/04/19 06:50:16;;;;;;;9.57;3.80;;;;;;;7.93;61.46;103134.72;7390798;19;20018;-57
2023/04/19 06:52:43;;;;;;;7.90;3.90;;;;;;;7.92;61.14;103138.25;7390692;19;20483;-56
2023/04/19 06:55:10;;;;;;;8.30;3.55;;;;;;;7.99;60.97;103141.63;7389920;19;20014;-56
2023/04/19 06:57:37;;;;;;;8.93;3.45;;;;;;;8.01;61.24;103142.44;7390312;19;20021;-57
2023/04/19 07:00:05;;;;;;;8.93;3.30;;;;;;;8.05;60.75;103146.72;7389116;19;20043;-57
2023/04/19 07:02:32;;;;;;;8.85;3.38;;;;;;;8.06;60.34;103146.72;7390303;19;20010;-55
2023/04/19 07:05:00;;;;;;;6.97;3.35;;;;;;;8.14;59.83;103135.09;7390331;19;20035;-52
2023/04/19 07:07:27;;;;;;;8.55;3.08;;;;;;;8.20;59.92;103132.28;7391252;19;20102;-53
2023/04/19 07:09:54;;;;;;;8.05;3.40;;;;;;;8.25;60.22;103138.34;7390170;19;20015;-54
2023/04/19 07:12:20;;;;;;;5.68;3.10;;;;;;;8.37;59.95;103129.22;7390473;19;20021;-54
2023/04/19 07:14:47;;;;;;;8.10;3.25;;;;;;;8.35;59.33;103133.69;7388369;19;20039;-52
2023/04/19 07:17:17;;;;;;;7.55;2.97;;;;;;;8.36;59.68;103130.16;7390597;19;20014;-54
2023/04/19 07:19:47;;;;;;;7.55;3.17;;;;;;;8.44;59.64;103128.19;7388385;19;20066;-53
2023/04/19 07:22:14;;;;;;;8.00;3.00;;;;;;;8.58;59.35;103122.53;7388318;19;20495;-55
2023/04/19 07:24:43;;;;;;;8.80;3.08;;;;;;;8.68;58.76;103129.31;7389250;19;20342;-53
2023/04/19 07:27:10;;;;;;;6.30;2.90;;;;;;;8.79;58.31;103130.75;7389249;19;20018;-53
2023/04/19 07:29:39;;;;;;;6.18;2.70;;;;;;;8.89;58.14;103117.25;7388005;19;20037;-55
2023/04/19 07:32:06;;;;;;;4.97;2.47;;;;;;;8.94;57.85;103121.53;7388593;19;20031;-54
2023/04/19 07:34:33;;;;;;;6.93;2.78;;;;;;;9.06;57.50;103116.78;7388184;19;20085;-54
2023/04/19 07:36:59;;;;;;;5.95;2.58;;;;;;;9.12;56.98;103116.59;7385203;19;20512;-52
2023/04/19 07:39:27;;;;;;;8.18;2.80;;;;;;;9.19;56.51;103112.84;7387358;19;20486;-55
2023/04/19 07:41:53;;;;;;;3.45;2.10;;;;;;;9.26;56.39;103119.69;7389328;19;20017;-53
2023/04/19 07:44:20;;;;;;;5.78;2.33;;;;;;;9.31;55.90;103111.63;7389335;19;20014;-54
2023/04/19 07:46:47;;;;;;;5.25;2.58;;;;;;;9.38;55.44;103108.75;7387887;19;20043;-53
2023/04/19 07:49:15;;;;;;;3.67;2.00;;;;;;;9.42;55.27;103105.09;7388473;19;20142;-53
2023/04/19 07:51:41;;;;;;;6.35;2.60;;;;;;;9.44;54.52;103103.28;7389124;19;20494;-50
2023/04/19 07:54:09;;;;;;;7.00;2.13;;;;;;;9.52;54.24;103101.25;7387966;19;20023;-53
2023/04/19 07:56:36;;;;;;;6.22;2.80;;;;;;;9.59;53.83;103098.44;7387490;19;20019;-52
2023/04/19 07:59:03;;;;;;;4.25;2.33;;;;;;;9.65;53.73;103090.28;7388305;19;20015;-53
2023/04/19 08:01:35;;;;;;;5.60;2.08;;;;;;;9.76;53.39;103091.66;7388820;19;20218;-54
2023/04/19 08:04:03;;;;;;;4.65;2.42;;;;;;;9.83;53.26;103092.31;7386971;19;20015;-53
2023/04/19 08:06:31;;;;;;;4.32;2.03;;;;;;;9.87;53.65;103080.72;7386670;19;20041;-54
2023/04/19 08:08:58;;;;;;;4.72;2.33;;;;;;;9.94;53.52;103084.91;7388373;19;20512;-54
2023/04/19 08:11:25;;;;;;;5.35;2.10;;;;;;;9.99;53.52;103080.31;7389473;19;20010;-52
2023/04/19 08:13:52;;;;;;;3.83;1.98;;;;;;;10.06;53.51;103075.69;7393094;19;20014;-54
2023/04/19 08:16:37;;;;;;;4.70;2.15;;;;;;;10.09;53.24;103066.78;7391862;19;20021;-53
2023/04/19 08:19:07;;;;;;;4.13;2.05;;;;;;;10.17;52.89;103068.22;7395341;19;20011;-53
2023/04/19 08:21:34;;;;;;;5.00;2.22;;;;;;;10.20;52.99;103060.19;7394030;19;20025;-52
2023/04/19 08:24:07;;;;;;;4.97;2.20;;;;;;;10.36;52.43;103057.88;7395821;19;20070;-52
2023/04/19 08:26:34;;;;;;;3.65;1.80;;;;;;;10.44;51.72;103061.13;7393652;19;20135;-54
2023/04/19 08:29:01;;;;;;;2.58;1.40;;;;;;;10.54;49.79;103061.66;7395067;19;20014;-54
2023/04/19 08:31:28;;;;;;;4.82;1.50;;;;;;;10.59;48.64;103054.41;7393317;19;20499;-52
2023/04/19 08:33:55;;;;;;;3.47;1.30;;;;;;;10.66;47.54;103055.06;7393998;19;20019;-50
2023/04/19 08:36:22;;;;;;;5.15;1.30;;;;;;;10.74;47.35;103051.19;7393198;19;20049;-53
2023/04/19 08:39:05;;;;;;;3.60;1.48;;;;;;;10.84;46.96;103041.13;7394644;19;20023;-53
2023/04/19 08:41:40;;;;;;;2.55;1.35;;;;;;;10.87;45.91;103042.78;7395083;19;20424;-53
2023/04/19 08:44:10;;;;;;;2.97;1.23;;;;;;;10.97;45.93;103039.72;7394317;19;20499;-52
2023/04/19 08:46:37;;;;;;;6.00;1.65;;;;;;;11.08;45.69;103038.44;7392454;19;20051;-53
2023/04/19 08:49:05;;;;;;;4.53;1.40;;;;;;;11.13;45.30;103031.16;7393949;19;20014;-54
2023/04/19 08:51:33;;;;;;;3.17;1.63;;;;;;;11.22;44.76;103041.41;7394641;19;20514;-52
2023/04/19 08:54:03;;;;;;;3.30;1.50;;;;;;;11.16;43.86;103026.59;7390894;19;20018;-53
2023/04/19 08:56:30;;;;;;;3.45;1.65;;;;;;;11.14;44.56;103028.47;7392237;19;20018;-57
2023/04/19 08:59:01;;;;;;;2.83;1.42;;;;;;;11.20;44.54;103033.50;7394072;19;20018;-56
2023/04/19 09:01:44;;;;;;;4.45;1.75;;;;;;;11.28;44.60;103032.34;7394591;19;20019;-55
2023/04/19 09:04:11;;;;;;;3.67;1.50;;;;;;;11.35;44.34;103029.38;7394184;19;20285;-54
2023/04/19 09:06:41;;;;;;;4.05;1.60;;;;;;;11.40;42.99;103013.28;7392189;19;20014;-55
2023/04/19 09:09:15;;;;;;;5.47;1.65;;;;;;;11.44;41.75;103010.44;7393370;19;20029;-52
2023/04/19 09:12:01;;;;;;;4.68;1.70;;;;;;;11.52;41.41;103020.72;7393987;19;20011;-55
2023/04/19 09:14:28;;;;;;;3.58;1.83;;;;;;;11.45;41.63;103009.53;7390780;19;20015;-53
2023/04/19 09:17:13;;;;;;;3.55;1.65;;;;;;;11.48;41.46;103016.47;7391403;19;20014;-54
2023/04/19 09:19:47;;;;;;;3.60;1.35;;;;;;;11.49;42.33;103007.59;7393161;19;20014;-53
2023/04/19 09:22:14;;;;;;;4.68;1.90;;;;;;;11.54;42.82;103005.63;7392811;19;20026;-53
2023/04/19 09:24:41;;;;;;;3.25;1.48;;;;;;;11.64;42.16;103004.31;7390929;19;20472;-52
2023/04/19 09:27:15;;;;;;;4.55;1.65;;;;;;;11.65;42.53;102995.41;7394245;19;20043;-54
2023/04/19 09:29:51;;;;;;;4.53;1.63;;;;;;;11.65;42.79;102994.56;7393237;19;20015;-54
2023/04/19 09:32:19;;;;;;;3.88;1.70;;;;;;;11.67;42.58;102996.19;7392199;19;20094;-53
2023/04/19 09:34:54;;;;;;;3.90;1.65;;;;;;;11.75;41.73;102987.06;7392019;19;20029;-52
2023/04/19 09:37:22;;;;;;;5.07;1.70;;;;;;;11.76;42.17;102984.34;7393173;19;20028;-54
2023/04/19 09:40:25;;;;;;;2.97;1.45;;;;;;;11.80;41.28;102972.66;7392588;19;20019;-52
2023/04/19 09:42:53;;;;;;;5.57;1.75;;;;;;;11.89;42.17;102977.59;7393247;19;20025;-49
2023/04/19 09:45:23;;;;;;;3.63;1.60;;;;;;;11.95;41.67;102966.72;7390770;19;20018;-53
2023/04/19 09:48:01;;;;;;;4.32;2.22;;;;;;;11.98;40.19;102975.47;7390998;19;20435;-53
2023/04/19 09:50:28;;;;;;;5.03;2.30;;;;;;;11.95;41.60;102971.19;7392585;19;20025;-52
2023/04/19 09:52:59;;;;;;;4.18;1.80;;;;;;;12.03;40.93;102970.84;7392352;19;20014;-53
2023/04/19 09:55:26;;;;;;;5.07;2.20;;;;;;;12.06;40.75;102960.09;7390622;19;20056;-53
2023/04/19 09:57:55;;;;;;;3.83;1.80;;;;;;;12.07;40.97;102967.13;7391918;19;20029;-53
2023/04/19 10:00:24;;;;;;;4.85;1.58;;;;;;;12.13;39.37;102949.13;7391708;19;20018;-52
2023/04/19 10:02:54;;;;;;;3.60;1.60;;;;;;;12.08;40.10;102937.81;7392225;19;20022;-53
2023/04/19 10:05:24;;;;;;;2.97;1.60;;;;;;;12.18;40.82;102955.06;7391266;19;20077;-54
2023/04/19 10:07:53;;;;;;;3.90;1.73;;;;;;;12.33;39.29;102945.56;7391689;19;20019;-53
2023/04/19 10:10:26;;;;;;;6.65;1.88;;;;;;;12.28;39.23;102922.75;7392150;19;20029;-54
2023/04/19 10:13:01;;;;;;;2.97;1.40;;;;;;;12.23;39.74;102928.28;7390245;19;20525;-50
2023/04/19 10:15:31;;;;;;;4.63;1.80;;;;;;;12.37;39.59;102920.56;7390088;19;20018;-53
2023/04/19 10:18:18;;;;;;;4.25;1.40;;;;;;;12.48;38.18;102917.41;7392302;19;20015;-53
2023/04/19 10:20:58;;;;;;;3.47;1.60;;;;;;;12.59;35.48;102917.75;7390778;19;20019;-54
2023/04/19 10:23:27;;;;;;;2.78;1.67;;;;;;;12.56;35.75;102903.75;7391400;19;20043;-56
2023/04/19 10:25:56;;;;;;;5.85;1.60;;;;;;;12.53;35.41;102903.91;7390625;19;20489;-56
2023/04/19 10:28:24;;;;;;;3.67;1.30;;;;;;;12.59;35.53;102900.94;7391204;19;20491;-54
2023/04/19 10:30:52;;;;;;;2.50;1.50;;;;;;;12.64;36.04;102889.16;7391847;19;20018;-54
2023/04/19 10:33:27;;;;;;;2.33;1.30;;;;;;;12.75;35.95;102882.47;7391278;19;20019;-53
2023/04/19 10:35:56;;;;;;;2.58;1.27;;;;;;;12.75;35.68;102871.84;7387227;19;20018;-55
2023/04/19 10:38:46;;;;;;;4.28;1.52;;;;;;;12.85;33.66;102881.91;7390671;19;20025;-56
2023/04/19 10:41:18;;;;;;;5.65;1.63;;;;;;;12.79;34.21;102884.91;7391100;19;20527;-56
2023/04/19 10:43:54;;;;;;;4.47;1.30;;;;;;;12.91;33.81;102884.28;7391325;19;20018;-56
2023/04/19 10:46:21;;;;;;;4.38;1.60;;;;;;;12.88;33.79;102876.47;7387701;19;20021;-55
2023/04/19 10:48:53;;;;;;;2.35;1.33;;;;;;;12.92;33.53;102862.06;7390543;19;20019;-56
2023/04/19 10:51:35;;;;;;;1.98;1.20;;;;;;;12.96;34.03;102864.59;7390641;19;20130;-55
2023/04/19 10:54:03;;;;;;;2.58;1.33;;;;;;;13.07;34.38;102856.94;7390958;19;20029;-55
2023/04/19 10:56:33;;;;;;;3.45;1.40;;;;;;;13.11;34.69;102845.19;7388660;19;20027;-55
2023/04/19 10:59:00;;;;;;;4.53;1.30;;;;;;;13.12;34.17;102849.56;7389976;19;20022;-56
2023/04/19 11:01:38;;;;;;;6.05;1.50;;;;;;;13.24;33.44;102848.09;7389213;19;20035;-55
2023/04/19 11:04:06;;;;;;;4.28;1.40;;;;;;;13.16;33.06;102856.44;7391226;19;20468;-56
2023/04/19 11:06:34;;;;;;;5.03;1.20;;;;;;;13.17;33.23;102842.22;7388756;19;20468;-57
2023/04/19 11:09:04;;;;;;;4.55;1.50;;;;;;;13.28;32.95;102842.56;7390190;19;20104;-56
2023/04/19 11:11:35;;;;;;;3.90;1.25;;;;;;;13.30;32.59;102853.97;7389296;19;20051;-57
2023/04/19 11:14:03;;;;;;;5.32;1.52;;;;;;;13.24;32.42;102833.03;7390260;19;20043;-54
2023/04/19 11:16:30;;;;;;;3.17;1.40;;;;;;;13.17;32.87;102831.59;7388237;19;20111;-54
2023/04/19 11:19:18;;;;;;;4.50;1.60;;;;;;;13.18;33.49;102820.84;7390326;19;20029;-55
2023/04/19 11:21:46;;;;;;;5.65;1.60;;;;;;;13.28;33.44;102825.72;7390190;19;20487;-55
2023/04/19 11:24:17;;;;;;;4.18;1.77;;;;;;;13.31;32.87;102825.56;7390204;19;20032;-54
2023/04/19 11:26:45;;;;;;;5.60;1.48;;;;;;;13.30;33.06;102810.56;7387942;19;20491;-55
2023/04/19 11:29:13;;;;;;;4.43;1.30;;;;;;;13.34;34.06;102818.28;7389458;19;20014;-55
2023/04/19 11:31:45;;;;;;;3.40;1.67;;;;;;;13.40;33.40;102812.66;7389680;19;20015;-55
2023/04/19 11:34:12;;;;;;;2.35;1.35;;;;;;;13.44;33.02;102805.38;7389622;19;20090;-55